Time;durP1;ratioP1;P1;durP2;ratioP2;P2;SDS_P1;SDS_P2;PMS_P1;PMS_P2;Temp;Humidity;BMP_temperature;BMP_pressure;BME280_temperature;BME280_humidity;BME280_pressure;Samples;Min_cycle;Max_cycle;Signal;HPM_P1;HPM_P2
2022/12/19 00:00:17;;;;;;;260.15;96.35;;;;;;;-7.54;74.74;102198.89;2057203;86;27713;-64
2022/12/19 00:03:21;;;;;;;267.15;94.32;;;;;;;-7.58;74.77;102183.91;2014387;87;27743;-65
2022/12/19 00:06:23;;;;;;;254.23;97.60;;;;;;;-7.62;74.81;102176.35;2057381;86;31789;-65
2022/12/19 00:09:26;;;;;;;264.98;96.90;;;;;;;-7.65;74.79;102180.08;2014598;88;32972;-64
2022/12/19 00:12:27;;;;;;;262.80;97.97;;;;;;;-7.64;74.77;102183.17;2057346;86;30425;-65
2022/12/19 00:15:28;;;;;;;269.32;98.87;;;;;;;-7.65;74.73;102172.27;2035335;87;27612;-65
2022/12/19 00:18:30;;;;;;;256.52;91.92;;;;;;;-7.68;74.74;102172.98;2013502;88;28644;-64
2022/12/19 00:21:33;;;;;;;273.10;101.87;;;;;;;-7.70;74.86;102169.81;2034647;87;31907;-64
2022/12/19 00:24:35;;;;;;;257.52;93.65;;;;;;;-7.67;74.90;102172.16;2017504;88;32987;-64
2022/12/19 00:27:36;;;;;;;266.20;96.45;;;;;;;-7.68;74.90;102181.20;2042754;87;29303;-65
2022/12/19 00:30:38;;;;;;;272.95;102.02;;;;;;;-7.70;74.74;102185.42;2042906;87;28353;-64
2022/12/19 00:33:39;;;;;;;262.42;101.22;;;;;;;-7.73;74.67;102179.66;2049412;86;28638;-64
2022/12/19 00:36:41;;;;;;;257.35;99.62;;;;;;;-7.75;74.73;102173.47;2049345;86;31849;-64
2022/12/19 00:39:43;;;;;;;263.25;99.45;;;;;;;-7.76;74.69;102176.88;2042906;87;32954;-64
2022/12/19 00:42:44;;;;;;;277.30;103.00;;;;;;;-7.79;74.67;102176.70;2049284;86;29329;-64
2022/12/19 00:45:46;;;;;;;266.95;100.35;;;;;;;-7.82;74.64;102169.63;2049434;86;27806;-64
2022/12/19 00:48:47;;;;;;;253.27;94.80;;;;;;;-7.83;74.62;102166.92;2042866;87;29791;-64
2022/12/19 00:51:49;;;;;;;255.07;94.22;;;;;;;-7.87;74.64;102163.69;2040440;86;31009;-64
2022/12/19 00:54:50;;;;;;;264.88;100.53;;;;;;;-7.94;74.56;102163.33;2035069;87;32936;-64
2022/12/19 00:57:52;;;;;;;269.45;97.35;;;;;;;-7.97;74.59;102161.84;2013718;88;29407;-64
2022/12/19 01:00:53;;;;;;;255.57;96.15;;;;;;;-8.00;74.65;102155.59;2035312;87;27758;-65
2022/12/19 01:03:57;;;;;;;260.15;97.80;;;;;;;-8.03;74.65;102156.70;2013484;88;28692;-66
2022/12/19 01:06:59;;;;;;;260.55;96.75;;;;;;;-8.02;74.69;102165.88;2035212;87;31254;-65
2022/12/19 01:10:02;;;;;;;252.65;96.87;;;;;;;-8.01;74.71;102166.80;2013174;87;33034;-65
2022/12/19 01:13:03;;;;;;;267.23;94.60;;;;;;;-8.00;74.70;102169.47;2034431;87;29377;-64
2022/12/19 01:16:11;;;;;;;252.47;88.78;;;;;;;-7.99;74.80;102154.36;2013013;88;28336;-65
2022/12/19 01:19:13;;;;;;;252.35;93.75;;;;;;;-7.99;74.79;102163.46;2034333;87;28898;-64
2022/12/19 01:22:15;;;;;;;258.77;96.87;;;;;;;-7.97;74.76;102164.87;2013049;88;31447;-64
2022/12/19 01:25:17;;;;;;;245.48;93.03;;;;;;;-7.96;74.70;102153.66;2034218;87;34297;-64
2022/12/19 01:28:19;;;;;;;255.62;94.60;;;;;;;-7.96;74.69;102148.45;2012953;88;29400;-65
2022/12/19 01:31:21;;;;;;;237.00;87.65;;;;;;;-7.99;74.65;102138.75;2034626;87;27629;-64
2022/12/19 01:34:23;;;;;;;245.88;94.42;;;;;;;-7.98;74.72;102137.06;2013008;88;28665;-64
2022/12/19 01:37:25;;;;;;;240.57;92.88;;;;;;;-8.00;74.70;102126.98;2034268;87;31215;-64
2022/12/19 01:40:27;;;;;;;252.30;89.77;;;;;;;-8.01;74.60;102111.77;2013003;88;33042;-65
2022/12/19 01:43:32;;;;;;;253.15;91.35;;;;;;;-8.04;74.60;102101.22;2034507;87;30122;-65
2022/12/19 01:46:43;;;;;;;244.13;89.30;;;;;;;-8.10;74.48;102095.24;2013051;88;27717;-65
2022/12/19 01:49:45;;;;;;;259.48;97.27;;;;;;;-8.14;74.52;102087.19;2034515;87;28693;-65
2022/12/19 01:52:47;;;;;;;236.65;90.53;;;;;;;-8.19;74.48;102084.34;2014616;88;31851;-65
2022/12/19 01:55:49;;;;;;;245.07;93.15;;;;;;;-8.25;74.56;102074.50;2067779;86;34015;-64
2022/12/19 01:58:52;;;;;;;247.73;94.67;;;;;;;-8.26;74.46;102070.50;2039571;87;30171;-64
2022/12/19 02:01:59;;;;;;;261.50;95.37;;;;;;;-8.29;74.51;102068.63;2048895;86;27690;-64
2022/12/19 02:05:01;;;;;;;235.35;88.47;;;;;;;-8.32;74.53;102061.95;2048594;86;28700;-64
2022/12/19 02:08:03;;;;;;;238.32;87.00;;;;;;;-8.35;74.51;102047.90;2039172;87;31125;-65
2022/12/19 02:11:04;;;;;;;240.82;93.37;;;;;;;-8.36;74.59;102052.22;2048317;86;34118;-63
2022/12/19 02:14:06;;;;;;;229.05;87.88;;;;;;;-8.36;74.67;102064.30;2039417;87;29400;-65
2022/12/19 02:17:22;;;;;;;253.37;93.82;;;;;;;-8.33;74.78;102051.48;2048735;86;27679;-64
2022/12/19 02:21:02;;;;;;;254.70;94.42;;;;;;;-8.31;74.74;102049.45;2047898;86;29111;-65
2022/12/19 02:24:38;;;;;;;231.95;86.47;;;;;;;-8.30;74.74;102031.75;2006736;88;31071;-64
2022/12/19 02:27:51;;;;;;;235.53;90.77;;;;;;;-8.30;74.70;102034.77;2006932;88;33837;-65
2022/12/19 02:31:20;;;;;;;216.33;79.47;;;;;;;-8.32;74.69;102032.06;1973404;90;29359;-65
2022/12/19 02:34:36;;;;;;;237.48;86.75;;;;;;;-8.35;74.71;102023.20;2007096;88;27674;-65
2022/12/19 02:37:46;;;;;;;211.55;82.88;;;;;;;-8.36;74.81;102014.53;2006528;88;29527;-63
2022/12/19 02:40:58;;;;;;;221.00;78.50;;;;;;;-8.36;74.83;102018.81;1973127;90;31055;-64
2022/12/19 02:44:00;;;;;;;242.05;90.97;;;;;;;-8.40;74.87;102009.55;2006840;88;33070;-64
2022/12/19 02:47:03;;;;;;;241.42;92.30;;;;;;;-8.36;74.95;102017.52;2006787;88;29716;-64
2022/12/19 02:50:07;;;;;;;229.07;90.30;;;;;;;-8.32;74.99;102016.88;1973362;90;27706;-64
2022/12/19 02:53:14;;;;;;;224.75;82.12;;;;;;;-8.26;75.04;102001.61;2007537;87;28670;-64
2022/12/19 02:56:27;;;;;;;236.80;89.35;;;;;;;-8.22;75.06;101990.99;1979853;89;31927;-64
2022/12/19 02:59:57;;;;;;;227.78;84.25;;;;;;;-8.19;75.07;101975.14;2028271;87;32981;-64
2022/12/19 03:03:24;;;;;;;243.57;86.65;;;;;;;-8.16;74.99;101967.52;2028120;87;30542;-64
2022/12/19 03:06:34;;;;;;;218.40;79.90;;;;;;;-8.12;75.00;101969.48;2030261;86;27769;-64
2022/12/19 03:10:23;;;;;;;226.55;80.90;;;;;;;-8.06;75.08;101978.01;2025002;87;29548;-64
2022/12/19 03:13:44;;;;;;;216.45;80.75;;;;;;;-8.02;75.05;101972.14;2030120;87;31580;-64
2022/12/19 03:16:46;;;;;;;211.68;80.72;;;;;;;-7.96;75.07;101971.17;2030261;87;34245;-64
2022/12/19 03:19:48;;;;;;;213.80;80.05;;;;;;;-7.93;75.06;101970.43;2030087;87;30723;-64
2022/12/19 03:22:49;;;;;;;212.10;77.05;;;;;;;-7.90;75.06;101965.40;2030758;86;27674;-64
2022/12/19 03:25:53;;;;;;;226.12;82.45;;;;;;;-7.82;75.07;101950.19;2030343;87;29577;-64
2022/12/19 03:29:00;;;;;;;229.18;83.97;;;;;;;-7.79;75.03;101941.25;2030628;87;31882;-64
2022/12/19 03:32:05;;;;;;;211.03;80.83;;;;;;;-7.75;74.98;101931.50;2030394;87;33156;-64
2022/12/19 03:35:20;;;;;;;210.30;79.97;;;;;;;-7.74;74.87;101933.29;2030672;87;34790;-64
2022/12/19 03:38:22;;;;;;;216.27;78.37;;;;;;;-7.72;74.90;101939.47;2030555;87;27706;-64
2022/12/19 03:44:44;;;;;;;215.37;81.85;;;;;;;-7.64;74.87;101951.58;2030164;87;31091;-64
2022/12/19 03:47:50;;;;;;;201.50;78.97;;;;;;;-7.64;74.77;101950.27;2030177;87;33041;-64
2022/12/19 03:51:14;;;;;;;230.22;81.97;;;;;;;-7.65;74.71;101941.55;2036363;86;28985;-64
2022/12/19 03:54:26;;;;;;;208.87;75.30;;;;;;;-7.66;74.62;101934.56;2070872;86;27701;-64
2022/12/19 03:57:36;;;;;;;205.40;75.12;;;;;;;-7.62;74.79;101927.83;2070541;86;28660;-64
2022/12/19 04:00:40;;;;;;;202.43;73.90;;;;;;;-7.58;74.83;101927.14;2070684;85;31051;-64
2022/12/19 04:03:42;;;;;;;161.50;58.10;;;;;;;-7.56;74.72;101924.64;2070693;86;32983;-64
2022/12/19 04:06:45;;;;;;;197.80;75.08;;;;;;;-7.55;74.75;101919.92;2070660;86;29979;-64
2022/12/19 04:09:47;;;;;;;193.15;74.17;;;;;;;-7.53;74.78;101913.09;2070595;86;27748;-64
2022/12/19 04:12:53;;;;;;;189.90;70.75;;;;;;;-7.52;74.76;101910.55;2053744;85;28641;-63
2022/12/19 04:16:12;;;;;;;175.78;65.52;;;;;;;-7.50;74.78;101908.92;2042619;86;31064;-64
2022/12/19 04:19:47;;;;;;;197.93;70.87;;;;;;;-7.48;74.69;101901.17;2042765;86;33015;-64
2022/12/19 04:23:09;;;;;;;180.87;68.83;;;;;;;-7.48;74.63;101895.58;2028907;87;29401;-64
2022/12/19 04:26:13;;;;;;;183.72;68.40;;;;;;;-7.50;74.61;101898.52;2038530;87;27721;-63
2022/12/19 04:29:15;;;;;;;195.05;73.12;;;;;;;-7.50;74.65;101892.39;2042834;87;28446;-63
2022/12/19 04:32:17;;;;;;;193.20;69.75;;;;;;;-7.47;74.69;101901.66;2042270;87;32645;-62
2022/12/19 04:35:19;;;;;;;194.17;70.62;;;;;;;-7.45;74.68;101894.83;2042516;87;32975;-64
2022/12/19 04:38:21;;;;;;;176.50;65.00;;;;;;;-7.48;74.58;101909.90;2008013;88;30108;-64
2022/12/19 04:41:22;;;;;;;172.47;70.20;;;;;;;-7.46;74.68;101911.27;2042493;86;27733;-64
2022/12/19 04:44:24;;;;;;;172.47;61.80;;;;;;;-7.46;74.59;101898.25;2042441;87;28631;-64
2022/12/19 04:47:25;;;;;;;164.40;61.25;;;;;;;-7.46;74.58;101903.45;2042764;87;31014;-64
2022/12/19 04:50:27;;;;;;;170.80;66.37;;;;;;;-7.47;74.57;101897.77;2038972;87;32935;-64
2022/12/19 04:53:28;;;;;;;171.18;63.45;;;;;;;-7.48;74.61;101889.08;1986302;89;30084;-64
2022/12/19 04:56:30;;;;;;;166.18;63.50;;;;;;;-7.44;74.68;101886.63;1988355;89;27704;-64
2022/12/19 04:59:33;;;;;;;172.62;63.23;;;;;;;-7.44;74.65;101887.51;1988160;89;29437;-64
2022/12/19 05:02:35;;;;;;;180.27;67.78;;;;;;;-7.43;74.73;101883.18;1988135;88;31217;-63
2022/12/19 05:05:37;;;;;;;177.43;63.92;;;;;;;-7.41;74.72;101871.14;1996464;89;33605;-65
2022/12/19 05:08:41;;;;;;;166.20;63.10;;;;;;;-7.41;74.73;101874.66;1988085;89;29547;-63
2022/12/19 05:11:42;;;;;;;186.85;66.87;;;;;;;-7.38;74.73;101880.02;1989846;87;37029;-63
2022/12/19 05:14:45;;;;;;;167.55;61.83;;;;;;;-7.37;74.71;101874.38;2032850;87;27880;-62
2022/12/19 05:17:46;;;;;;;161.45;60.30;;;;;;;-7.35;74.71;101872.75;2012848;88;32271;-64
2022/12/19 05:20:48;;;;;;;168.95;63.80;;;;;;;-7.35;74.75;101880.56;2012546;88;33429;-64
2022/12/19 05:23:50;;;;;;;171.95;64.55;;;;;;;-7.37;74.67;101886.09;2012713;88;30113;-63
2022/12/19 05:26:52;;;;;;;170.02;63.65;;;;;;;-7.40;74.66;101879.44;2012451;88;27809;-63
2022/12/19 05:29:54;;;;;;;153.75;63.50;;;;;;;-7.39;74.73;101882.52;2012993;88;28680;-64
2022/12/19 05:32:55;;;;;;;154.50;58.38;;;;;;;-7.40;74.73;101871.63;2013066;88;31422;-66
2022/12/19 05:35:57;;;;;;;153.53;59.53;;;;;;;-7.42;74.79;101870.26;2012817;88;33354;-65
2022/12/19 05:38:59;;;;;;;156.85;62.53;;;;;;;-7.40;74.93;101861.21;2013027;88;29320;-65
2022/12/19 05:42:01;;;;;;;160.67;59.15;;;;;;;-7.38;74.88;101856.98;2012606;88;27582;-64
2022/12/19 05:45:03;;;;;;;144.05;59.18;;;;;;;-7.35;74.96;101854.53;2012705;88;28660;-64
2022/12/19 05:48:05;;;;;;;149.02;58.20;;;;;;;-7.35;74.83;101858.44;2012823;88;31884;-64
2022/12/19 05:51:07;;;;;;;161.52;62.10;;;;;;;-7.35;74.79;101860.61;2002535;88;33017;-64
2022/12/19 05:54:09;;;;;;;136.05;55.38;;;;;;;-7.37;74.79;101855.77;1977394;90;30669;-63
2022/12/19 05:57:11;;;;;;;162.10;64.17;;;;;;;-7.34;74.81;101849.38;1977493;90;27803;-63
2022/12/19 06:00:15;;;;;;;170.28;63.25;;;;;;;-7.35;74.71;101854.53;1977553;90;28815;-63
2022/12/19 06:03:16;;;;;;;155.50;56.30;;;;;;;-7.35;74.74;101845.42;1978408;90;31273;-63
2022/12/19 06:06:22;;;;;;;143.55;52.53;;;;;;;-7.36;74.76;101845.81;1977796;90;33387;-63
2022/12/19 06:09:24;;;;;;;150.93;56.63;;;;;;;-7.34;74.82;101844.17;1977626;90;30491;-63
2022/12/19 06:12:25;;;;;;;147.78;53.83;;;;;;;-7.35;74.75;101845.42;1976946;90;27699;-63
2022/12/19 06:15:27;;;;;;;151.65;56.65;;;;;;;-7.34;74.82;101848.51;1977308;88;29163;-63
2022/12/19 06:18:29;;;;;;;139.03;53.78;;;;;;;-7.33;74.79;101853.77;1977199;90;31282;-63
2022/12/19 06:21:31;;;;;;;145.10;51.92;;;;;;;-7.33;74.76;101856.38;1977227;90;33053;-63
2022/12/19 06:24:33;;;;;;;137.18;52.48;;;;;;;-7.33;74.94;101858.98;1977652;90;29339;-63
2022/12/19 06:27:34;;;;;;;140.37;49.13;;;;;;;-7.28;75.05;101857.93;1977777;90;27693;-63
2022/12/19 06:30:36;;;;;;;135.82;50.12;;;;;;;-7.23;75.13;101856.84;1977574;88;28847;-64
2022/12/19 06:33:38;;;;;;;135.80;51.35;;;;;;;-7.19;75.24;101851.85;1977497;90;31054;-64
2022/12/19 06:36:39;;;;;;;136.35;52.00;;;;;;;-7.14;75.21;101840.77;1977528;90;33033;-63
2022/12/19 06:39:41;;;;;;;138.07;50.28;;;;;;;-7.09;75.14;101840.16;1977227;90;29399;-64
2022/12/19 06:42:42;;;;;;;147.35;54.80;;;;;;;-7.11;74.92;101841.80;1977665;90;27748;-63
2022/12/19 06:45:44;;;;;;;144.68;55.67;;;;;;;-7.11;75.03;101849.61;1979458;88;28660;-63
2022/12/19 06:48:45;;;;;;;133.90;52.50;;;;;;;-7.12;74.98;101847.83;1977609;88;31574;-63
2022/12/19 06:51:47;;;;;;;125.95;48.15;;;;;;;-7.12;75.02;101850.86;1977378;90;33843;-64
2022/12/19 06:54:49;;;;;;;127.90;49.35;;;;;;;-7.12;75.15;101849.55;1977457;90;30148;-64
2022/12/19 06:57:50;;;;;;;129.07;50.20;;;;;;;-7.09;75.16;101841.86;1977568;90;27755;-64
2022/12/19 07:00:53;;;;;;;137.80;50.95;;;;;;;-7.06;75.18;101838.11;1977614;90;28658;-64
2022/12/19 07:03:55;;;;;;;116.28;47.17;;;;;;;-7.05;75.10;101829.47;1977462;90;31904;-65
2022/12/19 07:06:57;;;;;;;118.55;45.63;;;;;;;-7.05;75.21;101830.77;1977408;90;32984;-65
2022/12/19 07:09:59;;;;;;;116.42;41.33;;;;;;;-6.99;75.39;101831.47;1977518;90;29368;-65
2022/12/19 07:13:01;;;;;;;142.65;59.55;;;;;;;-6.94;75.56;101828.68;1977605;90;27724;-64
2022/12/19 07:16:04;;;;;;;123.92;47.65;;;;;;;-6.83;75.60;101833.09;2005963;88;28703;-64
2022/12/19 07:19:07;;;;;;;124.60;47.85;;;;;;;-6.77;75.58;101817.33;2012804;88;31052;-63
2022/12/19 07:22:09;;;;;;;190.60;76.92;;;;;;;-6.70;75.48;101810.67;2012745;88;32983;-64
2022/12/19 07:25:11;;;;;;;140.40;59.88;;;;;;;-6.63;75.43;101812.75;2012655;88;30135;-64
2022/12/19 07:28:12;;;;;;;121.80;46.98;;;;;;;-6.57;75.43;101807.80;2012895;88;27642;-64
2022/12/19 07:31:14;;;;;;;106.92;39.75;;;;;;;-6.50;75.31;101803.74;2012892;88;28738;-63
2022/12/19 07:34:15;;;;;;;122.72;47.78;;;;;;;-6.49;75.28;101793.80;2012742;88;31438;-63
2022/12/19 07:37:17;;;;;;;103.22;39.75;;;;;;;-6.45;75.31;101789.21;2012639;88;33132;-63
2022/12/19 07:40:19;;;;;;;114.03;44.10;;;;;;;-6.40;75.37;101784.19;2012793;88;30124;-64
2022/12/19 07:43:20;;;;;;;111.75;41.73;;;;;;;-6.33;75.47;101801.91;2012924;88;27623;-64
2022/12/19 07:46:22;;;;;;;107.92;42.65;;;;;;;-6.21;75.63;101799.34;2006519;88;30017;-64
2022/12/19 07:49:24;;;;;;;122.75;51.68;;;;;;;-6.09;75.53;101793.77;2012777;88;31207;-64
2022/12/19 07:52:25;;;;;;;120.77;48.92;;;;;;;-5.93;75.66;101801.38;2012510;88;33768;-64
2022/12/19 07:55:27;;;;;;;116.03;46.40;;;;;;;-5.78;75.68;101804.16;2012416;87;30304;-64
2022/12/19 07:58:30;;;;;;;111.42;44.55;;;;;;;-5.62;75.56;101800.47;2012449;88;27733;-64
2022/12/19 08:01:31;;;;;;;107.75;42.45;;;;;;;-5.45;75.49;101780.25;2012373;88;29550;-64
2022/12/19 08:04:33;;;;;;;95.70;40.43;;;;;;;-5.29;75.31;101776.11;2012429;88;31043;-64
2022/12/19 08:07:34;;;;;;;107.60;44.08;;;;;;;-5.16;74.94;101784.42;2012504;88;33043;-65
2022/12/19 08:10:36;;;;;;;109.63;45.38;;;;;;;-5.07;75.02;101800.47;2012598;88;29547;-64
2022/12/19 08:13:38;;;;;;;98.25;41.65;;;;;;;-4.95;75.03;101788.27;2009187;88;27809;-65
2022/12/19 08:16:40;;;;;;;95.87;39.10;;;;;;;-4.81;75.01;101775.73;2009423;88;28564;-65
2022/12/19 08:19:41;;;;;;;95.95;39.08;;;;;;;-4.67;74.77;101770.59;2012502;88;31091;-65
2022/12/19 08:22:43;;;;;;;99.83;38.75;;;;;;;-4.55;74.65;101766.66;2012684;88;32966;-65
2022/12/19 08:25:45;;;;;;;93.72;39.92;;;;;;;-4.44;74.72;101781.88;2012599;88;30205;-65
2022/12/19 08:28:47;;;;;;;94.65;38.95;;;;;;;-4.28;74.62;101768.95;2012683;88;27777;-65
2022/12/19 08:31:49;;;;;;;91.25;37.30;;;;;;;-4.12;74.78;101769.05;2012631;88;28849;-65
2022/12/19 08:34:50;;;;;;;92.37;38.13;;;;;;;-3.95;74.58;101770.04;2012605;88;31096;-64
2022/12/19 08:37:52;;;;;;;92.27;38.85;;;;;;;-3.82;74.34;101759.56;2012700;88;33811;-64
2022/12/19 08:40:53;;;;;;;83.95;38.28;;;;;;;-3.68;74.53;101755.67;2012584;88;29327;-65
2022/12/19 08:43:55;;;;;;;93.72;38.90;;;;;;;-3.52;73.62;101748.30;2012539;88;27641;-65
2022/12/19 08:46:57;;;;;;;91.75;38.78;;;;;;;-3.41;73.90;101732.52;2012662;88;29453;-65
2022/12/19 08:49:58;;;;;;;100.95;39.98;;;;;;;-3.36;73.82;101724.36;2012548;88;31033;-65
2022/12/19 08:53:00;;;;;;;74.70;32.20;;;;;;;-3.28;73.48;101736.38;2012923;87;32936;-64
2022/12/19 08:56:06;;;;;;;85.85;37.63;;;;;;;-3.30;72.89;101733.26;2012689;87;29373;-65
2022/12/19 08:59:08;;;;;;;80.85;35.95;;;;;;;-3.32;73.03;101731.01;2012956;88;27733;-65
2022/12/19 09:02:10;;;;;;;93.78;37.85;;;;;;;-3.32;73.16;101737.16;2012818;87;28639;-66
2022/12/19 09:05:11;;;;;;;81.50;34.70;;;;;;;-3.27;73.20;101734.23;2012427;88;31161;-65
2022/12/19 09:08:13;;;;;;;86.50;38.05;;;;;;;-3.22;73.07;101731.74;2012739;88;32977;-65
2022/12/19 09:11:18;;;;;;;86.90;36.50;;;;;;;-3.13;73.33;101731.13;2012683;88;29384;-65
2022/12/19 09:14:20;;;;;;;82.47;34.43;;;;;;;-3.03;73.08;101721.81;1997959;88;28268;-66
2022/12/19 09:17:21;;;;;;;81.87;34.48;;;;;;;-2.96;73.12;101714.17;1976849;90;28708;-65
2022/12/19 09:20:23;;;;;;;81.82;34.45;;;;;;;-2.85;72.84;101717.54;1976861;90;31041;-65
2022/12/19 09:23:26;;;;;;;80.80;34.75;;;;;;;-2.74;72.92;101717.41;1976916;90;33558;-65
2022/12/19 09:26:28;;;;;;;71.25;32.30;;;;;;;-2.64;72.76;101712.00;1977262;89;29878;-65
2022/12/19 09:29:30;;;;;;;79.72;33.95;;;;;;;-2.55;72.41;101706.12;1976844;90;27645;-65
2022/12/19 09:32:31;;;;;;;64.75;29.80;;;;;;;-2.45;72.45;101698.95;1976715;90;29666;-65
2022/12/19 09:35:33;;;;;;;76.47;35.40;;;;;;;-2.36;72.02;101696.98;1976634;89;31088;-65
2022/12/19 09:38:35;;;;;;;71.80;32.25;;;;;;;-2.32;72.10;101691.89;1976695;90;32969;-65
2022/12/19 09:42:08;;;;;;;70.47;33.20;;;;;;;-2.26;72.27;101684.59;1976116;90;27814;-65
2022/12/19 09:45:21;;;;;;;72.85;32.25;;;;;;;-2.18;72.23;101683.03;1945139;89;27831;-64
2022/12/19 09:48:24;;;;;;;64.97;31.62;;;;;;;-2.09;71.76;101679.75;1945044;91;28680;-64
2022/12/19 09:51:37;;;;;;;61.90;28.23;;;;;;;-1.98;71.75;101672.14;1951516;89;31238;-64
2022/12/19 09:55:12;;;;;;;73.57;33.75;;;;;;;-1.87;71.89;101661.45;1945202;91;29527;-64
2022/12/19 09:58:40;;;;;;;71.90;31.97;;;;;;;-1.74;72.04;101656.07;1945020;91;29055;-64
2022/12/19 10:02:02;;;;;;;64.53;32.42;;;;;;;-1.63;71.68;101652.79;1945405;91;27793;-64
2022/12/19 10:05:48;;;;;;;60.38;29.63;;;;;;;-1.53;71.83;101658.73;1944918;91;28740;-65
2022/12/19 10:08:46;;;;;;;60.17;29.52;;;;;;;-1.41;71.82;101651.55;1907787;91;27778;-64
2022/12/19 10:12:15;;;;;;;68.00;30.65;;;;;;;-1.30;71.85;101641.23;1912602;92;33922;-62
2022/12/19 10:15:44;;;;;;;65.20;30.68;;;;;;;-1.20;71.68;101641.91;1884988;94;30265;-63
2022/12/19 10:18:58;;;;;;;70.55;31.87;;;;;;;-1.11;71.27;101634.63;1881910;94;27873;-63
2022/12/19 10:22:29;;;;;;;64.20;30.55;;;;;;;-1.05;71.47;101629.47;1925231;91;29860;-62
2022/12/19 10:26:03;;;;;;;64.37;31.48;;;;;;;-0.97;71.21;101627.00;1945000;91;31954;-63
2022/12/19 10:29:41;;;;;;;65.35;29.05;;;;;;;-0.92;70.72;101618.36;1942641;91;27954;-63
2022/12/19 10:33:07;;;;;;;67.32;30.77;;;;;;;-0.85;71.04;101614.51;1923697;91;27808;-64
2022/12/19 10:36:11;;;;;;;64.05;30.43;;;;;;;-0.75;70.14;101605.05;1942673;91;27779;-64
2022/12/19 10:39:18;;;;;;;64.20;30.85;;;;;;;-0.71;70.52;101597.23;1944901;91;28834;-64
2022/12/19 10:42:49;;;;;;;68.22;31.55;;;;;;;-0.64;70.62;101601.75;1944830;91;32063;-63
2022/12/19 10:45:55;;;;;;;66.92;32.30;;;;;;;-0.55;70.98;101590.50;1907668;92;33030;-64
2022/12/19 10:48:58;;;;;;;60.88;29.87;;;;;;;-0.45;70.86;101586.28;1918457;92;29353;-64
2022/12/19 10:52:06;;;;;;;55.80;26.35;;;;;;;-0.36;70.94;101589.05;1950285;90;27940;-64
2022/12/19 10:55:30;;;;;;;57.17;27.20;;;;;;;-0.26;70.31;101588.77;1968514;90;29351;-64
2022/12/19 10:58:39;;;;;;;53.02;27.80;;;;;;;-0.18;69.99;101573.09;1968602;90;31042;-63
2022/12/19 11:01:41;;;;;;;58.17;29.87;;;;;;;-0.08;70.43;101574.12;1968537;90;33962;-63
2022/12/19 11:04:45;;;;;;;52.78;27.25;;;;;;;0.01;70.60;101572.05;1968626;90;29844;-63
2022/12/19 11:08:09;;;;;;;51.23;27.60;;;;;;;0.08;70.51;101579.20;1968674;90;27752;-64
2022/12/19 11:11:12;;;;;;;59.75;30.02;;;;;;;0.17;70.07;101568.77;1968680;90;28706;-63
2022/12/19 11:14:30;;;;;;;47.40;26.48;;;;;;;0.29;70.32;101566.30;1950816;90;32379;-63
2022/12/19 11:17:36;;;;;;;57.70;28.35;;;;;;;0.40;69.94;101552.39;1927611;90;33106;-66
2022/12/19 11:20:38;;;;;;;51.23;28.30;;;;;;;0.54;70.07;101545.95;1927502;92;30076;-64
2022/12/19 11:24:00;;;;;;;51.55;26.82;;;;;;;0.65;69.69;101544.77;1973106;90;27707;-64
2022/12/19 11:27:01;;;;;;;43.45;22.07;;;;;;;0.75;69.43;101528.16;1972095;90;29516;-64
2022/12/19 11:30:08;;;;;;;40.88;20.15;;;;;;;0.88;69.42;101521.27;1968257;90;31100;-64
2022/12/19 11:33:16;;;;;;;34.50;18.80;;;;;;;1.00;68.93;101514.78;1975966;88;33820;-65
2022/12/19 11:36:54;;;;;;;33.98;17.60;;;;;;;1.12;67.71;101516.66;1977436;90;30180;-65
2022/12/19 11:40:19;;;;;;;39.10;20.00;;;;;;;1.22;68.08;101501.80;1977729;90;27819;-65
2022/12/19 11:43:43;;;;;;;46.75;24.90;;;;;;;1.30;68.70;101492.61;1926868;90;28674;-64
2022/12/19 11:47:14;;;;;;;41.15;22.67;;;;;;;1.35;68.11;101494.41;1949199;90;32094;-65
2022/12/19 11:50:38;;;;;;;43.50;20.82;;;;;;;1.43;68.34;101485.68;1968319;90;33056;-65
2022/12/19 11:53:54;;;;;;;39.67;21.25;;;;;;;1.42;67.88;101495.34;1968397;90;30121;-65
2022/12/19 11:56:56;;;;;;;36.93;19.05;;;;;;;1.47;68.10;101483.52;1968893;90;27930;-66
2022/12/19 11:59:58;;;;;;;37.45;18.85;;;;;;;1.48;67.99;101476.91;1968563;90;29512;-65
2022/12/19 12:03:17;;;;;;;40.50;20.08;;;;;;;1.52;67.69;101458.00;1968671;89;31049;-65
2022/12/19 12:06:18;;;;;;;36.80;18.67;;;;;;;1.52;67.86;101463.28;1968454;90;33764;-66
2022/12/19 12:09:45;;;;;;;36.08;19.82;;;;;;;1.53;66.92;101450.98;1968562;90;29327;-65
2022/12/19 12:13:00;;;;;;;41.37;19.90;;;;;;;1.54;67.54;101447.02;1968555;90;27784;-65
2022/12/19 12:16:14;;;;;;;40.78;20.62;;;;;;;1.55;67.56;101459.34;1962737;90;29209;-63
2022/12/19 12:19:42;;;;;;;43.90;20.48;;;;;;;1.58;67.48;101466.39;1970956;90;31922;-65
2022/12/19 12:23:09;;;;;;;37.55;19.95;;;;;;;1.59;67.70;101465.11;1921660;92;33839;-64
2022/12/19 12:26:26;;;;;;;38.15;19.27;;;;;;;1.59;67.34;101474.35;1922215;92;30284;-64
2022/12/19 12:29:53;;;;;;;38.48;20.48;;;;;;;1.59;67.36;101473.03;1922854;92;27858;-66
2022/12/19 12:33:21;;;;;;;40.17;20.05;;;;;;;1.60;67.17;101472.58;1922543;92;28698;-65
2022/12/19 12:36:28;;;;;;;44.45;23.83;;;;;;;1.59;67.12;101478.73;1922126;92;31946;-64
2022/12/19 12:39:50;;;;;;;42.98;23.05;;;;;;;1.59;67.17;101462.47;1958217;90;33820;-64
2022/12/19 12:43:13;;;;;;;42.62;23.27;;;;;;;1.58;67.13;101448.81;1958438;90;29495;-66
2022/12/19 12:46:19;;;;;;;42.85;23.30;;;;;;;1.59;67.21;101442.66;1958354;90;27762;-64
2022/12/19 12:49:38;;;;;;;41.92;22.62;;;;;;;1.60;67.19;101440.88;1958095;90;30109;-64
2022/12/19 12:52:53;;;;;;;40.00;21.57;;;;;;;1.62;67.20;101428.57;1937949;90;32185;-68
2022/12/19 12:55:56;;;;;;;36.42;20.48;;;;;;;1.62;66.90;101428.16;1957885;89;33803;-64
2022/12/19 12:59:19;;;;;;;44.55;22.42;;;;;;;1.66;67.03;101427.73;1963467;89;29502;-64
2022/12/19 13:02:22;;;;;;;41.75;23.10;;;;;;;1.67;67.06;101421.11;2000680;89;27803;-65
2022/12/19 13:05:53;;;;;;;40.40;22.10;;;;;;;1.73;66.65;101410.14;2000684;88;28684;-66
2022/12/19 13:09:18;;;;;;;36.30;21.00;;;;;;;1.78;66.85;101400.04;2026096;87;32377;-66
2022/12/19 13:15:48;;;;;;;36.33;20.82;;;;;;;1.94;66.88;101378.54;2032777;87;30622;-64
2022/12/19 13:19:23;;;;;;;36.70;20.40;;;;;;;2.02;66.56;101385.17;2032833;87;27744;-63
2022/12/19 13:22:33;;;;;;;47.20;25.90;;;;;;;2.05;66.10;101393.12;2033115;86;28772;-64
2022/12/19 13:25:40;;;;;;;41.75;23.18;;;;;;;2.09;66.39;101394.00;2033334;87;32170;-64
2022/12/19 13:28:42;;;;;;;43.80;24.25;;;;;;;2.13;66.36;101391.81;2033103;87;33475;-64
2022/12/19 13:31:50;;;;;;;40.33;21.42;;;;;;;2.12;66.14;101396.66;2032883;87;30546;-63
2022/12/19 13:34:59;;;;;;;38.10;22.00;;;;;;;2.13;65.81;101399.75;2027686;87;28247;-64
2022/12/19 13:38:17;;;;;;;44.60;24.98;;;;;;;2.11;65.57;101392.25;2032775;87;28684;-63
2022/12/19 13:44:52;;;;;;;72.35;41.58;;;;;;;2.04;65.59;101406.30;2012966;87;35128;-64
2022/12/19 13:48:00;;;;;;;50.75;27.55;;;;;;;1.99;65.86;101416.87;2009645;87;29346;-64
2022/12/19 13:51:10;;;;;;;49.80;25.00;;;;;;;1.94;65.88;101419.92;2032970;87;27757;-65
2022/12/19 13:54:33;;;;;;;47.83;24.45;;;;;;;1.91;66.07;101401.41;2033112;87;28689;-62
2022/12/19 13:57:37;;;;;;;49.95;26.15;;;;;;;1.89;65.32;101392.16;2032944;87;45642;-64
2022/12/19 14:00:42;;;;;;;49.83;26.35;;;;;;;1.85;65.55;101385.55;2033235;87;34268;-64
2022/12/19 14:03:46;;;;;;;47.45;24.32;;;;;;;1.79;65.69;101376.71;2033373;87;29384;-64
2022/12/19 14:06:50;;;;;;;45.38;25.25;;;;;;;1.75;65.50;101379.34;2027140;87;27714;-64
2022/12/19 14:09:52;;;;;;;47.90;25.48;;;;;;;1.73;65.65;101385.05;2033256;86;28863;-64
2022/12/19 14:16:17;;;;;;;45.15;24.82;;;;;;;1.62;65.54;101377.97;2032807;87;33011;-65
2022/12/19 14:19:29;;;;;;;39.27;21.73;;;;;;;1.55;65.64;101374.84;2032773;87;29399;-65
2022/12/19 14:22:30;;;;;;;47.78;24.80;;;;;;;1.49;65.52;101374.83;2033183;86;27614;-65